createdAt,value
2018-04-13T00:01:43.549Z,26.50
2018-04-13T00:03:45.128Z,27.40
2018-04-13T00:05:46.407Z,25.93
2018-04-13T00:07:47.778Z,28.27
2018-04-13T00:09:48.881Z,28.67
2018-04-13T00:11:51.778Z,24.40
2018-04-13T00:13:52.880Z,23.87
2018-04-13T00:15:54.070Z,24.23
2018-04-13T00:20:38.127Z,20.40
2018-04-13T00:22:40.704Z,20.40
2018-04-13T00:24:42.168Z,19.93
2018-04-13T00:26:43.260Z,20.47
2018-04-13T00:28:44.849Z,21.10
2018-04-13T00:30:47.138Z,19.97
2018-04-13T00:38:07.161Z,21.00
2018-04-13T00:40:08.990Z,20.53
2018-04-13T00:42:11.627Z,21.27
2018-04-13T00:44:13.038Z,21.30
2018-04-13T00:48:35.872Z,20.60
2018-04-13T00:53:07.272Z,21.00
2018-04-13T00:55:08.641Z,21.60
2018-04-13T00:57:10.022Z,19.83
2018-04-13T00:59:14.699Z,20.93
2018-04-13T01:01:17.205Z,21.50
2018-04-13T01:03:18.478Z,20.93
2018-04-13T01:05:20.693Z,21.97
2018-04-13T01:07:23.057Z,21.70
2018-04-13T01:09:31.109Z,23.43
2018-04-13T01:14:14.859Z,23.47
2018-04-13T01:16:32.184Z,23.27
2018-04-13T01:23:31.594Z,25.13
2018-04-13T01:30:48.395Z,26.37
2018-04-13T01:32:55.280Z,27.13
2018-04-13T01:34:57.095Z,28.53
2018-04-13T01:37:02.249Z,27.20
2018-04-13T01:42:45.833Z,28.60
2018-04-13T01:44:48.633Z,30.43
2018-04-13T01:46:50.954Z,33.00
2018-04-13T01:48:53.496Z,33.10
2018-04-13T01:53:33.375Z,33.73
2018-04-13T01:55:34.794Z,32.13
2018-04-13T01:57:36.251Z,32.77
2018-04-13T01:59:38.273Z,35.10
2018-04-13T02:01:41.810Z,35.80
2018-04-13T02:03:43.083Z,33.73
2018-04-13T02:05:45.059Z,33.50
2018-04-13T02:07:47.124Z,34.20
2018-04-13T02:09:48.765Z,33.30
2018-04-13T02:14:41.847Z,33.70
2018-04-13T02:16:43.197Z,34.93
2018-04-13T02:18:44.509Z,31.10
2018-04-13T02:25:54.565Z,36.70
2018-04-13T02:27:56.984Z,37.77
2018-04-13T02:30:01.328Z,31.87
2018-04-13T02:32:02.684Z,34.90
2018-04-13T02:36:41.007Z,38.57
2018-04-13T02:38:42.730Z,33.40
2018-04-13T02:40:45.753Z,32.30
2018-04-13T02:42:47.142Z,31.77
2018-04-13T02:44:51.525Z,33.93
2018-04-13T02:46:54.623Z,35.87
2018-04-13T02:48:56.993Z,36.53
2018-04-13T02:58:36.474Z,34.53
2018-04-13T03:00:37.810Z,35.70
2018-04-13T03:03:03.691Z,36.73
2018-04-13T03:05:05.843Z,37.03
2018-04-13T03:09:21.731Z,33.00
2018-04-13T03:11:35.517Z,35.80
2018-04-13T03:13:41.982Z,32.07
2018-04-13T03:18:33.954Z,36.47
2018-04-13T03:25:31.393Z,41.78
2018-04-13T03:30:04.239Z,36.30
2018-04-13T03:34:33.826Z,36.07
2018-04-13T03:36:37.650Z,34.60
2018-04-13T03:38:39.355Z,35.80
2018-04-13T03:40:42.036Z,32.80
2018-04-13T03:42:48.344Z,33.30
2018-04-13T03:45:05.946Z,32.90
2018-04-13T03:47:13.008Z,31.63
2018-04-13T03:51:51.968Z,30.03
2018-04-13T03:56:17.017Z,32.33
2018-04-13T03:58:19.809Z,32.67
2018-04-13T04:00:34.400Z,36.63
2018-04-13T04:02:35.812Z,39.10
2018-04-13T04:07:07.584Z,39.00
2018-04-13T04:09:29.490Z,37.50
2018-04-13T04:11:32.685Z,37.50
2018-04-13T04:16:01.508Z,36.17
2018-04-13T04:18:02.816Z,36.53
2018-04-13T04:20:16.811Z,37.33
2018-04-13T04:22:35.287Z,42.10
2018-04-13T04:24:50.524Z,41.53
2018-04-13T04:26:51.878Z,41.13
2018-04-13T04:28:56.266Z,39.27
2018-04-13T04:35:53.722Z,38.30
2018-04-13T04:37:59.237Z,40.20
2018-04-13T04:40:18.620Z,40.57
2018-04-13T04:42:19.780Z,44.10
2018-04-13T04:49:18.870Z,46.40
2018-04-13T04:53:58.172Z,49.20
2018-04-13T04:55:59.199Z,51.17
2018-04-13T04:58:00.498Z,49.97
2018-04-13T05:00:19.418Z,52.73
2018-04-13T05:02:50.793Z,54.50
2018-04-13T05:04:52.403Z,51.00
2018-04-13T05:06:53.486Z,49.93
2018-04-13T05:08:56.807Z,49.33
2018-04-13T05:11:20.354Z,51.27
2018-04-13T05:18:17.678Z,51.63
2018-04-13T05:22:50.100Z,47.83
2018-04-13T05:24:51.165Z,48.80
2018-04-13T05:26:53.512Z,48.57
2018-04-13T05:28:54.999Z,50.97
2018-04-13T05:30:56.460Z,49.20
2018-04-13T05:32:59.124Z,47.30
2018-04-13T05:35:00.685Z,49.10
2018-04-13T05:37:36.197Z,48.27
2018-04-13T05:42:07.292Z,45.70
2018-04-13T05:44:08.373Z,44.70
2018-04-13T05:48:37.668Z,45.23
2018-04-13T05:50:39.135Z,44.17
2018-04-13T05:52:40.336Z,46.23
2018-04-13T05:55:07.819Z,48.60
2018-04-13T05:57:08.930Z,47.87
2018-04-13T05:59:12.537Z,47.00
2018-04-13T06:01:14.475Z,47.30
2018-04-13T06:03:16.272Z,46.30
2018-04-13T06:05:17.847Z,48.13
2018-04-13T06:07:19.111Z,48.87
2018-04-13T06:11:58.388Z,43.33
2018-04-13T06:14:12.376Z,46.40
2018-04-13T06:16:13.524Z,47.23
2018-04-13T06:18:14.781Z,46.03
2018-04-13T06:22:53.581Z,47.30
2018-04-13T06:24:55.118Z,48.03
2018-04-13T06:26:56.421Z,47.87
2018-04-13T06:29:11.082Z,49.97
2018-04-13T06:31:12.328Z,47.40
2018-04-13T06:33:13.446Z,45.80
2018-04-13T06:35:15.945Z,48.20
2018-04-13T06:37:20.005Z,46.17
2018-04-13T06:39:21.245Z,45.53
2018-04-13T06:41:22.500Z,47.30
2018-04-13T06:43:24.904Z,47.00
2018-04-13T06:45:39.855Z,45.57
2018-04-13T06:52:36.309Z,44.03
2018-04-13T06:54:37.559Z,44.13
2018-04-13T06:56:40.399Z,45.03
2018-04-13T06:58:41.428Z,45.67
2018-04-13T07:00:43.095Z,43.73
2018-04-13T07:02:49.643Z,45.27
2018-04-13T07:04:53.740Z,40.30
2018-04-13T07:07:10.106Z,45.67
2018-04-13T07:09:12.766Z,46.37
2018-04-13T07:11:15.228Z,46.13
2018-04-13T07:15:56.904Z,47.40
2018-04-13T07:20:10.154Z,47.00
2018-04-13T07:22:11.193Z,47.57
2018-04-13T07:24:13.761Z,48.93
2018-04-13T07:26:16.447Z,49.90
2018-04-13T07:28:22.261Z,48.07
2018-04-13T07:30:24.088Z,49.50
2018-04-13T07:32:25.675Z,48.63
2018-04-13T07:34:27.682Z,52.00
2018-04-13T07:36:29.492Z,54.37
2018-04-13T07:38:30.882Z,49.40
2018-04-13T07:40:32.414Z,55.97
2018-04-13T07:42:33.667Z,51.87
2018-04-13T07:44:35.144Z,50.03
2018-04-13T07:46:36.582Z,51.57
2018-04-13T07:48:37.171Z,50.23
2018-04-13T07:50:38.198Z,51.67
2018-04-13T07:52:39.163Z,51.27
2018-04-13T07:54:40.875Z,52.97
2018-04-13T07:56:42.049Z,52.80
2018-04-13T07:58:43.308Z,50.10
2018-04-13T08:00:44.247Z,50.23
2018-04-13T08:02:45.301Z,54.70
2018-04-13T08:04:47.560Z,53.63
2018-04-13T08:06:48.708Z,50.80
2018-04-13T08:08:50.070Z,52.30
2018-04-13T08:10:51.697Z,53.97
2018-04-13T08:12:52.797Z,55.30
2018-04-13T08:14:53.989Z,54.83
2018-04-13T08:16:55.072Z,54.03
2018-04-13T08:18:56.161Z,54.37
2018-04-13T08:20:57.290Z,53.93
2018-04-13T08:22:59.025Z,54.70
2018-04-13T08:25:00.268Z,59.05
2018-04-13T08:27:01.515Z,58.00
2018-04-13T08:29:02.663Z,56.83
2018-04-13T08:31:04.231Z,54.67
2018-04-13T08:33:05.457Z,54.70
2018-04-13T08:35:06.710Z,56.27
2018-04-13T08:37:08.029Z,56.33
2018-04-13T08:39:09.198Z,53.60
2018-04-13T08:41:10.960Z,52.73
2018-04-13T08:43:12.201Z,57.27
2018-04-13T08:45:13.378Z,57.07
2018-04-13T08:47:14.637Z,55.03
2018-04-13T08:49:16.181Z,56.07
2018-04-13T08:51:17.653Z,56.27
2018-04-13T08:53:18.962Z,55.17
2018-04-13T08:55:20.142Z,56.07
2018-04-13T08:57:21.191Z,55.60
2018-04-13T08:59:22.758Z,59.57
2018-04-13T09:01:24.234Z,56.20
2018-04-13T09:03:25.295Z,56.97
2018-04-13T09:05:27.030Z,58.10
2018-04-13T09:07:29.045Z,57.70
2018-04-13T09:09:30.277Z,61.80
2018-04-13T09:11:32.079Z,58.43
2018-04-13T09:13:33.355Z,56.10
2018-04-13T09:15:36.016Z,58.00
2018-04-13T09:17:38.317Z,59.50
2018-04-13T09:19:39.836Z,59.23
2018-04-13T09:21:40.988Z,61.80
2018-04-13T09:23:42.056Z,58.20
2018-04-13T09:25:43.443Z,61.77
2018-04-13T09:27:47.125Z,58.10
2018-04-13T09:29:48.332Z,56.73
2018-04-13T09:31:49.873Z,56.83
2018-04-13T09:33:52.401Z,58.93
2018-04-13T09:35:53.513Z,58.90
2018-04-13T09:37:55.235Z,57.97
2018-04-13T09:39:57.333Z,56.70
2018-04-13T09:41:58.508Z,53.67
2018-04-13T09:43:59.860Z,58.67
2018-04-13T09:46:01.470Z,56.00
2018-04-13T09:48:02.884Z,57.30
2018-04-13T09:50:04.248Z,56.17
2018-04-13T09:52:05.942Z,58.40
2018-04-13T09:54:06.993Z,57.30
2018-04-13T09:56:08.050Z,56.17
2018-04-13T09:58:09.778Z,54.17
2018-04-13T10:00:11.364Z,54.97
2018-04-13T10:02:18.888Z,55.60
2018-04-13T10:04:20.176Z,54.33
2018-04-13T10:06:21.241Z,55.80
2018-04-13T10:08:22.273Z,57.30
2018-04-13T10:10:23.479Z,59.27
2018-04-13T10:12:24.567Z,57.53
2018-04-13T10:14:25.810Z,57.10
2018-04-13T10:16:26.864Z,59.60
2018-04-13T10:18:27.948Z,60.23
2018-04-13T10:20:29.131Z,57.97
2018-04-13T10:22:30.185Z,56.40
2018-04-13T10:24:31.201Z,60.67
2018-04-13T10:26:32.805Z,62.10
2018-04-13T10:28:34.390Z,62.40
2018-04-13T10:30:35.766Z,62.37
2018-04-13T10:32:36.879Z,60.27
2018-04-13T10:34:38.571Z,56.97
2018-04-13T10:36:39.661Z,60.53
2018-04-13T10:38:40.997Z,56.00
2018-04-13T10:40:42.201Z,58.93
2018-04-13T10:42:43.342Z,60.10
2018-04-13T10:44:44.399Z,60.00
2018-04-13T10:46:45.631Z,59.80
2018-04-13T10:48:46.698Z,56.97
2018-04-13T10:50:47.733Z,58.50
2018-04-13T10:52:49.124Z,59.33
2018-04-13T10:54:50.381Z,59.73
2018-04-13T10:56:51.790Z,60.90
2018-04-13T10:58:52.840Z,58.90
2018-04-13T11:00:53.866Z,62.73
2018-04-13T11:02:54.862Z,60.63
2018-04-13T11:04:56.143Z,62.13
2018-04-13T11:06:57.224Z,61.50
2018-04-13T11:08:59.477Z,56.17
2018-04-13T11:11:01.490Z,56.37
2018-04-13T11:13:02.632Z,69.53
2018-04-13T11:15:04.301Z,66.40
2018-04-13T11:17:05.753Z,63.20
2018-04-13T11:19:06.859Z,62.33
2018-04-13T11:21:07.901Z,64.67
2018-04-13T11:23:10.208Z,62.10
2018-04-13T11:25:11.550Z,63.27
2018-04-13T11:27:13.266Z,62.70
2018-04-13T11:29:14.686Z,65.73
2018-04-13T11:31:15.893Z,57.77
2018-04-13T11:33:17.120Z,66.17
2018-04-13T11:35:19.164Z,68.23
2018-04-13T11:37:20.223Z,74.70
2018-04-13T11:39:21.229Z,70.13
2018-04-13T11:41:22.209Z,71.73
2018-04-13T11:43:23.223Z,76.77
2018-04-13T11:45:24.641Z,71.10
2018-04-13T11:47:26.713Z,77.30
2018-04-13T11:49:27.750Z,75.10
2018-04-13T11:51:28.870Z,65.67
2018-04-13T11:53:29.877Z,75.00
2018-04-13T11:55:30.865Z,74.00
2018-04-13T11:57:31.872Z,75.97
2018-04-13T11:59:33.144Z,76.50
2018-04-13T12:01:34.157Z,71.97
2018-04-13T12:03:35.299Z,72.80
2018-04-13T12:05:36.318Z,75.67
2018-04-13T12:07:37.603Z,75.10
2018-04-13T12:09:38.829Z,75.50
2018-04-13T12:11:39.838Z,73.07
2018-04-13T12:13:41.100Z,73.40
2018-04-13T12:15:42.316Z,73.53
2018-04-13T12:17:43.268Z,68.60
2018-04-13T12:19:44.246Z,71.37
2018-04-13T12:21:45.222Z,78.83
2018-04-13T12:23:46.368Z,74.97
2018-04-13T12:25:47.633Z,69.83
2018-04-13T12:27:48.900Z,64.07
2018-04-13T12:29:51.063Z,69.83
2018-04-13T12:31:52.108Z,75.57
2018-04-13T12:33:53.478Z,74.37
2018-04-13T12:35:54.582Z,72.00
2018-04-13T12:37:55.621Z,72.80
2018-04-13T12:39:56.839Z,74.17
2018-04-13T12:41:57.883Z,72.77
2018-04-13T12:43:58.884Z,69.63
2018-04-13T12:45:59.974Z,75.20
2018-04-13T12:48:01.135Z,78.10
2018-04-13T12:50:02.157Z,74.13
2018-04-13T12:52:03.146Z,82.13
2018-04-13T12:54:04.563Z,78.83
2018-04-13T12:56:05.655Z,73.20
2018-04-13T12:58:06.956Z,78.07
2018-04-13T13:00:08.038Z,76.13
2018-04-13T13:02:10.114Z,71.87
2018-04-13T13:04:11.136Z,81.63
2018-04-13T13:06:12.353Z,80.27
2018-04-13T13:08:13.403Z,81.07
2018-04-13T13:10:14.761Z,75.43
2018-04-13T13:12:15.994Z,71.17
2018-04-13T13:14:17.014Z,71.07
2018-04-13T13:16:18.197Z,71.80
2018-04-13T13:18:19.447Z,71.50
2018-04-13T13:20:20.486Z,73.07
2018-04-13T13:22:21.437Z,73.53
2018-04-13T13:24:22.453Z,73.13
2018-04-13T13:26:23.778Z,79.90
2018-04-13T13:28:24.829Z,78.87
2018-04-13T13:30:25.873Z,77.87
2018-04-13T13:32:27.068Z,72.67
2018-04-13T13:34:28.060Z,76.47
2018-04-13T13:36:29.051Z,76.43
2018-04-13T13:38:30.027Z,79.77
2018-04-13T13:40:31.025Z,81.40
2018-04-13T13:42:32.178Z,84.33
2018-04-13T13:44:33.205Z,84.07
2018-04-13T13:46:34.190Z,81.53
2018-04-13T13:48:35.312Z,72.90
2018-04-13T13:50:36.669Z,86.50
2018-04-13T13:52:37.693Z,77.47
2018-04-13T13:54:38.891Z,82.17
2018-04-13T13:56:39.945Z,83.07
2018-04-13T13:58:40.928Z,92.20
2018-04-13T14:00:41.944Z,88.93
2018-04-13T14:02:43.011Z,87.10
2018-04-13T14:04:43.982Z,79.60
2018-04-13T14:06:45.178Z,81.77
2018-04-13T14:08:46.221Z,83.30
2018-04-13T14:10:47.373Z,86.10
2018-04-13T14:12:48.407Z,78.60
2018-04-13T14:14:49.476Z,79.73
2018-04-13T14:16:50.773Z,84.60
2018-04-13T14:18:51.771Z,85.40
2018-04-13T14:20:53.704Z,82.30
2018-04-13T14:22:54.866Z,83.90
2018-04-13T14:24:56.224Z,83.20
2018-04-13T14:26:57.220Z,89.47
2018-04-13T14:28:58.205Z,89.53
2018-04-13T14:30:59.286Z,87.27
2018-04-13T14:33:00.279Z,90.63
2018-04-13T14:35:01.244Z,88.30
2018-04-13T14:37:02.756Z,90.90
2018-04-13T14:39:04.650Z,86.60
2018-04-13T14:41:07.912Z,87.33
2018-04-13T14:43:08.986Z,86.83
2018-04-13T14:45:10.432Z,86.27
2018-04-13T14:47:11.480Z,92.07
2018-04-13T14:49:12.469Z,86.63
2018-04-13T14:51:13.513Z,90.37
2018-04-13T14:53:14.519Z,93.37
2018-04-13T14:55:16.284Z,94.03
2018-04-13T14:57:18.259Z,94.50
2018-04-13T14:59:19.341Z,98.30
2018-04-13T15:01:21.028Z,95.37
2018-04-13T15:03:22.092Z,95.37
2018-04-13T15:05:23.124Z,97.97
2018-04-13T15:07:24.227Z,92.83
2018-04-13T15:09:25.986Z,97.63
2018-04-13T15:11:28.723Z,97.47
2018-04-13T15:13:29.922Z,97.27
2018-04-13T15:15:31.547Z,95.57
2018-04-13T15:17:32.599Z,95.40
2018-04-13T15:19:33.599Z,92.63
2018-04-13T15:21:34.724Z,87.37
2018-04-13T15:23:35.747Z,84.27
2018-04-13T15:25:36.883Z,74.10
2018-04-13T15:27:38.648Z,80.40
2018-04-13T15:29:39.881Z,82.10
2018-04-13T15:31:40.875Z,72.00
2018-04-13T15:33:43.151Z,75.17
2018-04-13T15:35:44.295Z,71.97
2018-04-13T15:37:46.183Z,69.50
2018-04-13T15:39:47.217Z,73.37
2018-04-13T15:41:49.137Z,72.50
2018-04-13T15:43:50.355Z,74.33
2018-04-13T15:45:51.379Z,82.50
2018-04-13T15:47:53.366Z,78.13
2018-04-13T15:49:54.409Z,85.37
2018-04-13T15:51:55.604Z,90.07
2018-04-13T15:53:56.689Z,91.93
2018-04-13T15:55:57.738Z,93.40
2018-04-13T15:58:00.319Z,89.43
2018-04-13T16:00:01.359Z,96.80
2018-04-13T16:02:02.367Z,95.57
2018-04-13T16:04:03.353Z,100.23
2018-04-13T16:06:06.322Z,103.37
2018-04-13T16:08:07.451Z,104.73
2018-04-13T16:10:08.520Z,105.00
2018-04-13T16:12:11.892Z,101.57
2018-04-13T16:14:13.043Z,99.77
2018-04-13T16:16:19.741Z,101.67
2018-04-13T16:18:22.049Z,101.67
2018-04-13T16:20:24.072Z,96.97
2018-04-13T16:22:25.153Z,104.27
2018-04-13T16:24:26.189Z,102.30
2018-04-13T16:26:27.490Z,98.27
2018-04-13T16:28:28.630Z,99.50
2018-04-13T16:30:30.038Z,95.63
2018-04-13T16:32:31.195Z,98.37
2018-04-13T16:34:32.766Z,101.90
2018-04-13T16:36:33.816Z,100.43
2018-04-13T16:38:35.033Z,88.07
2018-04-13T16:40:36.123Z,91.90
2018-04-13T16:42:37.284Z,84.63
2018-04-13T16:44:38.386Z,99.72
2018-04-13T16:46:39.473Z,85.90
2018-04-13T16:48:40.537Z,72.47
2018-04-13T16:50:41.935Z,63.23
2018-04-13T16:52:43.858Z,54.37
2018-04-13T16:54:44.913Z,56.63
2018-04-13T16:56:45.950Z,54.90
2018-04-13T16:58:47.002Z,52.93
2018-04-13T17:00:48.984Z,56.93
2018-04-13T17:02:50.106Z,53.43
2018-04-13T17:04:51.118Z,60.43
2018-04-13T17:06:52.478Z,58.90
2018-04-13T17:08:53.609Z,59.80
2018-04-13T17:10:54.661Z,59.47
2018-04-13T17:12:55.829Z,57.13
2018-04-13T17:14:57.109Z,57.10
2018-04-13T17:16:58.173Z,60.70
2018-04-13T17:19:00.425Z,61.27
2018-04-13T17:21:03.487Z,56.80
2018-04-13T17:23:04.705Z,57.93
2018-04-13T17:25:05.762Z,57.57
2018-04-13T17:27:06.927Z,58.80
2018-04-13T17:29:08.019Z,61.37
2018-04-13T17:31:09.156Z,60.00
2018-04-13T17:33:10.235Z,55.67
2018-04-13T17:35:15.121Z,54.20
2018-04-13T17:37:16.378Z,49.27
2018-04-13T17:39:17.450Z,42.53
2018-04-13T17:41:18.529Z,39.20
2018-04-13T17:43:19.684Z,35.27
2018-04-13T17:45:21.451Z,34.23
2018-04-13T17:47:22.640Z,29.90
2018-04-13T17:49:23.718Z,27.00
2018-04-13T17:51:24.787Z,27.83
2018-04-13T17:53:25.873Z,24.17
2018-04-13T17:55:26.885Z,26.40
2018-04-13T17:57:28.076Z,24.70
2018-04-13T17:59:29.176Z,23.60
2018-04-13T18:01:30.171Z,21.03
2018-04-13T18:03:31.277Z,23.30
2018-04-13T18:05:32.993Z,23.37
2018-04-13T18:07:34.099Z,23.60
2018-04-13T18:09:35.111Z,21.97
2018-04-13T18:11:36.263Z,20.23
2018-04-13T18:13:37.304Z,22.17
2018-04-13T18:15:40.082Z,22.40
2018-04-13T18:17:41.217Z,22.90
2018-04-13T18:19:42.378Z,22.47
2018-04-13T18:21:43.491Z,22.40
2018-04-13T18:23:44.522Z,21.50
2018-04-13T18:25:45.637Z,21.60
2018-04-13T18:27:46.805Z,23.57
2018-04-13T18:29:48.063Z,21.27
2018-04-13T18:31:49.111Z,24.07
2018-04-13T18:33:50.423Z,22.50
2018-04-13T18:35:51.471Z,20.47
2018-04-13T18:37:52.739Z,24.80
2018-04-13T18:39:55.245Z,23.27
2018-04-13T18:41:56.425Z,20.13
2018-04-13T18:43:57.533Z,21.57
2018-04-13T18:45:59.059Z,22.17
2018-04-13T18:48:00.112Z,22.67
2018-04-13T18:50:01.167Z,21.70
2018-04-13T18:52:02.191Z,22.87
2018-04-13T18:54:03.316Z,22.90
2018-04-13T18:56:04.327Z,25.87
2018-04-13T18:58:05.692Z,23.97
2018-04-13T19:00:06.703Z,25.10
2018-04-13T19:02:07.790Z,23.90
2018-04-13T19:04:08.832Z,25.67
2018-04-13T19:06:10.210Z,25.43
2018-04-13T19:08:11.619Z,25.40
2018-04-13T19:10:12.760Z,27.50
2018-04-13T19:12:14.317Z,25.00
2018-04-13T19:14:15.379Z,26.63
2018-04-13T19:16:17.262Z,26.33
2018-04-13T19:18:18.350Z,26.40
2018-04-13T19:20:19.391Z,28.80
2018-04-13T19:22:20.396Z,27.47
2018-04-13T19:24:21.713Z,28.40
2018-04-13T19:26:22.879Z,29.07
2018-04-13T19:28:23.923Z,26.77
2018-04-13T19:30:24.971Z,27.60
2018-04-13T19:32:25.988Z,25.53
2018-04-13T19:34:26.993Z,28.30
2018-04-13T19:36:28.035Z,26.60
2018-04-13T19:38:29.038Z,27.60
2018-04-13T19:40:30.666Z,24.70
2018-04-13T19:42:31.776Z,26.00
2018-04-13T19:44:33.582Z,24.00
2018-04-13T19:46:34.636Z,23.63
2018-04-13T19:48:35.696Z,27.30
2018-04-13T19:50:36.715Z,24.93
2018-04-13T19:54:46.790Z,25.47
2018-04-13T19:56:48.033Z,27.70
2018-04-13T19:58:49.101Z,28.07
2018-04-13T20:00:50.279Z,25.37
2018-04-13T20:02:51.435Z,29.80
2018-04-13T20:04:52.450Z,29.12
2018-04-13T20:06:54.614Z,28.40
2018-04-13T20:08:55.700Z,29.70
2018-04-13T20:10:57.073Z,32.30
2018-04-13T20:12:58.158Z,31.90
2018-04-13T20:17:43.708Z,31.37
2018-04-13T20:19:44.707Z,32.97
2018-04-13T20:21:55.921Z,32.40
2018-04-13T20:23:57.242Z,35.70
2018-04-13T20:25:58.454Z,36.40
2018-04-13T20:27:59.512Z,39.30
2018-04-13T20:30:25.515Z,40.67
2018-04-13T20:34:41.334Z,43.73
2018-04-13T20:36:42.685Z,41.40
2018-04-13T20:38:43.804Z,39.77
2018-04-13T20:40:45.497Z,38.37
2018-04-13T20:47:39.836Z,42.27
2018-04-13T20:49:41.141Z,44.23
2018-04-13T20:51:42.891Z,43.60
2018-04-13T20:53:43.947Z,47.00
2018-04-13T20:55:44.943Z,48.37
2018-04-13T20:57:46.514Z,50.70
2018-04-13T20:59:47.667Z,53.67
2018-04-13T21:01:48.768Z,54.30
2018-04-13T21:03:57.278Z,54.90
2018-04-13T21:05:59.065Z,56.13
2018-04-13T21:08:00.165Z,63.83
2018-04-13T21:10:01.579Z,72.17
2018-04-13T21:12:09.999Z,67.87
2018-04-13T21:14:11.197Z,67.23
2018-04-13T21:18:40.652Z,78.73
2018-04-13T21:20:42.184Z,78.70
2018-04-13T21:22:45.645Z,83.13
2018-04-13T21:27:15.283Z,83.70
2018-04-13T21:29:16.434Z,81.50
2018-04-13T21:33:55.272Z,78.77
2018-04-13T21:35:56.546Z,86.30
2018-04-13T21:37:57.772Z,85.17
2018-04-13T21:39:58.912Z,90.80
2018-04-13T21:42:10.009Z,84.43
2018-04-13T21:44:11.280Z,98.37
2018-04-13T21:46:12.466Z,98.57
2018-04-13T21:48:14.675Z,95.30
2018-04-13T21:50:23.766Z,96.13
2018-04-13T21:52:53.879Z,100.67
2018-04-13T21:57:35.777Z,87.70
2018-04-13T21:59:36.918Z,111.87
2018-04-13T22:01:38.276Z,99.87
2018-04-13T22:03:42.430Z,114.90
2018-04-13T22:08:05.449Z,101.83
2018-04-13T22:12:53.710Z,109.87
2018-04-13T22:14:54.940Z,104.07
2018-04-13T22:16:56.313Z,102.37
2018-04-13T22:18:57.897Z,112.77
2018-04-13T22:20:59.150Z,114.28
2018-04-13T22:23:00.262Z,110.77
2018-04-13T22:25:01.473Z,101.33
2018-04-13T22:27:02.760Z,108.50
2018-04-13T22:29:03.970Z,100.40
2018-04-13T22:31:05.583Z,89.77
2018-04-13T22:33:06.838Z,101.27
2018-04-13T22:35:08.067Z,109.77
2018-04-13T22:37:09.176Z,108.47
2018-04-13T22:39:10.342Z,102.43
2018-04-13T22:41:11.478Z,93.97
2018-04-13T22:43:14.667Z,91.47
2018-04-13T22:47:44.772Z,89.80
2018-04-13T22:49:59.368Z,84.10
2018-04-13T22:52:00.482Z,97.50
2018-04-13T22:54:01.492Z,84.37
2018-04-13T22:56:03.352Z,121.03
2018-04-13T22:58:04.693Z,109.83
2018-04-13T23:00:05.853Z,99.63
2018-04-13T23:02:07.286Z,100.13
2018-04-13T23:04:08.444Z,95.20
2018-04-13T23:06:12.378Z,96.03
2018-04-13T23:08:13.520Z,101.10
2018-04-13T23:10:15.308Z,89.67
2018-04-13T23:12:16.585Z,94.50
2018-04-13T23:14:17.669Z,91.83
2018-04-13T23:16:18.719Z,92.37
2018-04-13T23:18:19.731Z,86.47
2018-04-13T23:20:22.571Z,83.73
2018-04-13T23:22:38.014Z,78.83
2018-04-13T23:24:46.621Z,73.80
2018-04-13T23:26:48.111Z,73.93
2018-04-13T23:28:52.179Z,73.47
2018-04-13T23:30:53.345Z,72.70
2018-04-13T23:33:02.631Z,68.37
2018-04-13T23:35:03.736Z,66.67
2018-04-13T23:37:08.217Z,68.60
2018-04-13T23:39:13.302Z,68.70
2018-04-13T23:41:14.480Z,67.40
2018-04-13T23:43:15.666Z,66.83
2018-04-13T23:45:16.764Z,65.57
2018-04-13T23:47:17.867Z,68.80
2018-04-13T23:49:19.043Z,65.87
2018-04-13T23:51:20.295Z,73.57
2018-04-13T23:53:21.383Z,65.80
2018-04-13T23:55:22.439Z,66.80
2018-04-13T23:57:41.131Z,68.20
2018-04-13T23:59:42.222Z,66.80
